sensor_id;sensor_type;location;lat;lon;timestamp;P1;durP1;ratioP1;P2;durP2;ratioP2
20824;SDS011;10573;50.936;6.978;2023-06-14T00:01:10;6.47;;;4.65;;
20824;SDS011;10573;50.936;6.978;2023-06-14T00:03:38;9.02;;;4.40;;
20824;SDS011;10573;50.936;6.978;2023-06-14T00:06:04;5.10;;;4.30;;
20824;SDS011;10573;50.936;6.978;2023-06-14T00:08:29;9.70;;;4.07;;
20824;SDS011;10573;50.936;6.978;2023-06-14T00:10:55;7.50;;;3.88;;
20824;SDS011;10573;50.936;6.978;2023-06-14T00:13:20;7.65;;;4.25;;
20824;SDS011;10573;50.936;6.978;2023-06-14T00:15:46;6.32;;;4.78;;
20824;SDS011;10573;50.936;6.978;2023-06-14T00:18:12;7.60;;;4.07;;
20824;SDS011;10573;50.936;6.978;2023-06-14T00:20:37;5.40;;;4.22;;
20824;SDS011;10573;50.936;6.978;2023-06-14T00:23:04;4.55;;;3.95;;
20824;SDS011;10573;50.936;6.978;2023-06-14T00:25:30;8.20;;;5.43;;
20824;SDS011;10573;50.936;6.978;2023-06-14T00:27:55;4.53;;;4.05;;
20824;SDS011;10573;50.936;6.978;2023-06-14T00:30:22;6.18;;;4.43;;
20824;SDS011;10573;50.936;6.978;2023-06-14T00:32:48;10.23;;;5.10;;
20824;SDS011;10573;50.936;6.978;2023-06-14T00:35:15;9.80;;;5.27;;
20824;SDS011;10573;50.936;6.978;2023-06-14T00:37:40;5.00;;;4.27;;
20824;SDS011;10573;50.936;6.978;2023-06-14T00:40:06;7.63;;;4.93;;
20824;SDS011;10573;50.936;6.978;2023-06-14T00:42:32;6.80;;;4.87;;
20824;SDS011;10573;50.936;6.978;2023-06-14T00:44:57;7.47;;;4.77;;
20824;SDS011;10573;50.936;6.978;2023-06-14T00:47:23;8.70;;;4.90;;
20824;SDS011;10573;50.936;6.978;2023-06-14T00:49:50;8.57;;;4.23;;
20824;SDS011;10573;50.936;6.978;2023-06-14T00:52:16;6.87;;;4.73;;
20824;SDS011;10573;50.936;6.978;2023-06-14T00:54:42;5.60;;;5.00;;
20824;SDS011;10573;50.936;6.978;2023-06-14T00:57:11;6.93;;;4.47;;
20824;SDS011;10573;50.936;6.978;2023-06-14T00:59:38;5.07;;;4.57;;
20824;SDS011;10573;50.936;6.978;2023-06-14T01:02:08;7.57;;;4.40;;
20824;SDS011;10573;50.936;6.978;2023-06-14T01:04:33;7.33;;;5.27;;
20824;SDS011;10573;50.936;6.978;2023-06-14T01:07:02;10.07;;;5.03;;
20824;SDS011;10573;50.936;6.978;2023-06-14T01:09:40;6.40;;;4.37;;
20824;SDS011;10573;50.936;6.978;2023-06-14T01:15:27;6.50;;;4.63;;
20824;SDS011;10573;50.936;6.978;2023-06-14T01:17:55;8.67;;;4.40;;
20824;SDS011;10573;50.936;6.978;2023-06-14T01:20:28;7.37;;;5.00;;
20824;SDS011;10573;50.936;6.978;2023-06-14T01:22:56;9.13;;;4.37;;
20824;SDS011;10573;50.936;6.978;2023-06-14T01:25:21;6.73;;;4.60;;
20824;SDS011;10573;50.936;6.978;2023-06-14T01:27:58;6.93;;;4.40;;
20824;SDS011;10573;50.936;6.978;2023-06-14T01:30:28;8.67;;;4.87;;
20824;SDS011;10573;50.936;6.978;2023-06-14T01:32:55;7.97;;;4.37;;
20824;SDS011;10573;50.936;6.978;2023-06-14T01:35:22;6.13;;;4.60;;
20824;SDS011;10573;50.936;6.978;2023-06-14T01:37:48;10.23;;;4.50;;
20824;SDS011;10573;50.936;6.978;2023-06-14T01:40:15;9.80;;;4.30;;
20824;SDS011;10573;50.936;6.978;2023-06-14T01:42:42;8.03;;;3.90;;
20824;SDS011;10573;50.936;6.978;2023-06-14T01:45:11;6.23;;;4.13;;
20824;SDS011;10573;50.936;6.978;2023-06-14T01:47:36;5.17;;;4.10;;
20824;SDS011;10573;50.936;6.978;2023-06-14T01:50:05;6.00;;;4.73;;
20824;SDS011;10573;50.936;6.978;2023-06-14T01:52:30;6.10;;;4.87;;
20824;SDS011;10573;50.936;6.978;2023-06-14T01:54:56;5.30;;;4.23;;
20824;SDS011;10573;50.936;6.978;2023-06-14T01:57:23;7.60;;;4.73;;
20824;SDS011;10573;50.936;6.978;2023-06-14T01:59:50;6.00;;;3.80;;
20824;SDS011;10573;50.936;6.978;2023-06-14T02:02:16;8.63;;;4.73;;
20824;SDS011;10573;50.936;6.978;2023-06-14T02:04:41;9.60;;;4.63;;
20824;SDS011;10573;50.936;6.978;2023-06-14T02:07:07;8.83;;;4.30;;
20824;SDS011;10573;50.936;6.978;2023-06-14T02:09:33;6.37;;;4.37;;
20824;SDS011;10573;50.936;6.978;2023-06-14T02:11:59;5.77;;;4.70;;
20824;SDS011;10573;50.936;6.978;2023-06-14T02:14:24;8.53;;;4.40;;
20824;SDS011;10573;50.936;6.978;2023-06-14T02:16:50;7.10;;;4.47;;
20824;SDS011;10573;50.936;6.978;2023-06-14T02:19:16;5.13;;;4.00;;
20824;SDS011;10573;50.936;6.978;2023-06-14T02:21:41;8.40;;;4.83;;
20824;SDS011;10573;50.936;6.978;2023-06-14T02:24:07;4.77;;;3.80;;
20824;SDS011;10573;50.936;6.978;2023-06-14T02:26:33;6.97;;;4.00;;
20824;SDS011;10573;50.936;6.978;2023-06-14T02:28:58;5.87;;;4.30;;
20824;SDS011;10573;50.936;6.978;2023-06-14T02:31:24;7.50;;;4.37;;
20824;SDS011;10573;50.936;6.978;2023-06-14T02:33:50;7.23;;;4.70;;
20824;SDS011;10573;50.936;6.978;2023-06-14T02:36:15;4.63;;;4.00;;
20824;SDS011;10573;50.936;6.978;2023-06-14T02:38:41;7.77;;;4.63;;
20824;SDS011;10573;50.936;6.978;2023-06-14T02:41:06;5.77;;;4.77;;
20824;SDS011;10573;50.936;6.978;2023-06-14T02:43:32;11.13;;;4.60;;
20824;SDS011;10573;50.936;6.978;2023-06-14T02:45:57;7.57;;;5.00;;
20824;SDS011;10573;50.936;6.978;2023-06-14T02:48:23;5.87;;;3.77;;
20824;SDS011;10573;50.936;6.978;2023-06-14T02:50:48;6.57;;;4.60;;
20824;SDS011;10573;50.936;6.978;2023-06-14T02:53:14;7.20;;;4.10;;
20824;SDS011;10573;50.936;6.978;2023-06-14T02:55:39;7.13;;;4.80;;
20824;SDS011;10573;50.936;6.978;2023-06-14T02:58:05;5.13;;;4.23;;
20824;SDS011;10573;50.936;6.978;2023-06-14T03:00:31;9.07;;;4.67;;
20824;SDS011;10573;50.936;6.978;2023-06-14T03:02:56;7.37;;;4.87;;
20824;SDS011;10573;50.936;6.978;2023-06-14T03:05:22;6.87;;;4.40;;
20824;SDS011;10573;50.936;6.978;2023-06-14T03:07:48;6.00;;;4.60;;
20824;SDS011;10573;50.936;6.978;2023-06-14T03:10:15;6.50;;;4.83;;
20824;SDS011;10573;50.936;6.978;2023-06-14T03:12:41;7.30;;;4.57;;
20824;SDS011;10573;50.936;6.978;2023-06-14T03:15:06;7.20;;;4.90;;
20824;SDS011;10573;50.936;6.978;2023-06-14T03:17:32;9.00;;;4.77;;
20824;SDS011;10573;50.936;6.978;2023-06-14T03:19:59;8.33;;;4.10;;
20824;SDS011;10573;50.936;6.978;2023-06-14T03:22:25;5.17;;;4.60;;
20824;SDS011;10573;50.936;6.978;2023-06-14T03:24:51;8.03;;;5.47;;
20824;SDS011;10573;50.936;6.978;2023-06-14T03:27:20;6.13;;;4.60;;
20824;SDS011;10573;50.936;6.978;2023-06-14T03:29:45;4.93;;;4.07;;
20824;SDS011;10573;50.936;6.978;2023-06-14T03:32:11;4.70;;;4.17;;
20824;SDS011;10573;50.936;6.978;2023-06-14T03:34:36;6.10;;;4.57;;
20824;SDS011;10573;50.936;6.978;2023-06-14T03:37:04;6.97;;;4.87;;
20824;SDS011;10573;50.936;6.978;2023-06-14T03:39:29;17.80;;;4.90;;
20824;SDS011;10573;50.936;6.978;2023-06-14T03:41:55;5.23;;;4.03;;
20824;SDS011;10573;50.936;6.978;2023-06-14T03:44:20;6.17;;;4.40;;
20824;SDS011;10573;50.936;6.978;2023-06-14T03:46:46;6.50;;;4.00;;
20824;SDS011;10573;50.936;6.978;2023-06-14T03:49:12;6.37;;;4.83;;
20824;SDS011;10573;50.936;6.978;2023-06-14T03:51:38;6.00;;;4.77;;
20824;SDS011;10573;50.936;6.978;2023-06-14T03:54:05;6.97;;;3.87;;
20824;SDS011;10573;50.936;6.978;2023-06-14T03:56:30;6.13;;;4.17;;
20824;SDS011;10573;50.936;6.978;2023-06-14T03:58:56;6.07;;;4.83;;
20824;SDS011;10573;50.936;6.978;2023-06-14T04:01:21;6.30;;;3.90;;
20824;SDS011;10573;50.936;6.978;2023-06-14T04:03:52;5.97;;;5.00;;
20824;SDS011;10573;50.936;6.978;2023-06-14T04:06:17;4.90;;;4.33;;
20824;SDS011;10573;50.936;6.978;2023-06-14T04:08:44;7.70;;;4.03;;
20824;SDS011;10573;50.936;6.978;2023-06-14T04:11:10;5.40;;;3.93;;
20824;SDS011;10573;50.936;6.978;2023-06-14T04:13:36;9.53;;;4.97;;
20824;SDS011;10573;50.936;6.978;2023-06-14T04:16:02;6.27;;;4.60;;
20824;SDS011;10573;50.936;6.978;2023-06-14T04:18:28;6.80;;;4.37;;
20824;SDS011;10573;50.936;6.978;2023-06-14T04:20:53;9.43;;;4.43;;
20824;SDS011;10573;50.936;6.978;2023-06-14T04:23:19;8.70;;;4.23;;
20824;SDS011;10573;50.936;6.978;2023-06-14T04:25:44;5.53;;;4.13;;
20824;SDS011;10573;50.936;6.978;2023-06-14T04:28:13;5.03;;;3.93;;
20824;SDS011;10573;50.936;6.978;2023-06-14T04:30:43;9.77;;;4.80;;
20824;SDS011;10573;50.936;6.978;2023-06-14T04:33:09;6.67;;;4.00;;
20824;SDS011;10573;50.936;6.978;2023-06-14T04:35:35;9.20;;;4.10;;
20824;SDS011;10573;50.936;6.978;2023-06-14T04:38:02;8.47;;;4.37;;
20824;SDS011;10573;50.936;6.978;2023-06-14T04:40:30;5.70;;;4.07;;
20824;SDS011;10573;50.936;6.978;2023-06-14T04:42:56;7.43;;;4.53;;
20824;SDS011;10573;50.936;6.978;2023-06-14T04:45:22;11.23;;;4.20;;
20824;SDS011;10573;50.936;6.978;2023-06-14T04:47:48;8.67;;;4.27;;
20824;SDS011;10573;50.936;6.978;2023-06-14T04:50:13;10.57;;;4.10;;
20824;SDS011;10573;50.936;6.978;2023-06-14T04:52:39;8.40;;;3.97;;
20824;SDS011;10573;50.936;6.978;2023-06-14T04:55:05;7.00;;;4.33;;
20824;SDS011;10573;50.936;6.978;2023-06-14T04:57:31;7.83;;;3.73;;
20824;SDS011;10573;50.936;6.978;2023-06-14T04:59:57;10.50;;;3.77;;
20824;SDS011;10573;50.936;6.978;2023-06-14T05:02:26;10.80;;;4.00;;
20824;SDS011;10573;50.936;6.978;2023-06-14T05:04:52;15.80;;;8.83;;
20824;SDS011;10573;50.936;6.978;2023-06-14T05:07:18;10.13;;;5.83;;
20824;SDS011;10573;50.936;6.978;2023-06-14T05:09:45;15.97;;;5.47;;
20824;SDS011;10573;50.936;6.978;2023-06-14T05:12:10;9.88;;;4.15;;
20824;SDS011;10573;50.936;6.978;2023-06-14T05:14:36;6.17;;;3.07;;
20824;SDS011;10573;50.936;6.978;2023-06-14T05:17:02;14.37;;;3.47;;
20824;SDS011;10573;50.936;6.978;2023-06-14T05:19:27;8.63;;;3.70;;
20824;SDS011;10573;50.936;6.978;2023-06-14T05:21:53;7.07;;;3.23;;
20824;SDS011;10573;50.936;6.978;2023-06-14T05:24:18;7.90;;;3.63;;
20824;SDS011;10573;50.936;6.978;2023-06-14T05:26:44;6.67;;;3.10;;
20824;SDS011;10573;50.936;6.978;2023-06-14T05:29:10;7.53;;;3.70;;
20824;SDS011;10573;50.936;6.978;2023-06-14T05:31:36;7.00;;;3.53;;
20824;SDS011;10573;50.936;6.978;2023-06-14T05:34:02;17.77;;;6.37;;
20824;SDS011;10573;50.936;6.978;2023-06-14T05:36:27;16.90;;;8.87;;
20824;SDS011;10573;50.936;6.978;2023-06-14T05:38:53;5.87;;;3.73;;
20824;SDS011;10573;50.936;6.978;2023-06-14T05:41:24;8.40;;;3.30;;
20824;SDS011;10573;50.936;6.978;2023-06-14T05:43:53;7.20;;;3.20;;
20824;SDS011;10573;50.936;6.978;2023-06-14T05:46:22;4.27;;;2.70;;
20824;SDS011;10573;50.936;6.978;2023-06-14T05:48:53;3.83;;;3.07;;
20824;SDS011;10573;50.936;6.978;2023-06-14T05:51:19;7.80;;;3.20;;
20824;SDS011;10573;50.936;6.978;2023-06-14T05:53:48;3.80;;;2.83;;
20824;SDS011;10573;50.936;6.978;2023-06-14T05:56:14;9.40;;;2.90;;
20824;SDS011;10573;50.936;6.978;2023-06-14T05:58:40;9.40;;;3.67;;
20824;SDS011;10573;50.936;6.978;2023-06-14T06:01:06;7.73;;;3.07;;
20824;SDS011;10573;50.936;6.978;2023-06-14T06:03:32;7.50;;;3.17;;
20824;SDS011;10573;50.936;6.978;2023-06-14T06:05:58;4.73;;;2.73;;
20824;SDS011;10573;50.936;6.978;2023-06-14T06:08:24;13.13;;;3.08;;
20824;SDS011;10573;50.936;6.978;2023-06-14T06:10:49;10.18;;;3.25;;
20824;SDS011;10573;50.936;6.978;2023-06-14T06:13:14;5.27;;;2.70;;
20824;SDS011;10573;50.936;6.978;2023-06-14T06:15:40;8.23;;;3.03;;
20824;SDS011;10573;50.936;6.978;2023-06-14T06:18:06;5.28;;;2.70;;
20824;SDS011;10573;50.936;6.978;2023-06-14T06:20:31;9.00;;;2.55;;
20824;SDS011;10573;50.936;6.978;2023-06-14T06:23:00;5.78;;;3.05;;
20824;SDS011;10573;50.936;6.978;2023-06-14T06:25:26;8.43;;;2.58;;
20824;SDS011;10573;50.936;6.978;2023-06-14T06:27:54;6.22;;;2.85;;
20824;SDS011;10573;50.936;6.978;2023-06-14T06:30:23;8.57;;;2.80;;
20824;SDS011;10573;50.936;6.978;2023-06-14T06:32:49;6.28;;;2.35;;
20824;SDS011;10573;50.936;6.978;2023-06-14T06:35:15;11.73;;;2.72;;
20824;SDS011;10573;50.936;6.978;2023-06-14T06:37:41;4.43;;;2.45;;
20824;SDS011;10573;50.936;6.978;2023-06-14T06:40:07;8.63;;;2.30;;
20824;SDS011;10573;50.936;6.978;2023-06-14T06:42:34;3.80;;;2.28;;
20824;SDS011;10573;50.936;6.978;2023-06-14T06:45:00;5.25;;;2.30;;
20824;SDS011;10573;50.936;6.978;2023-06-14T06:47:25;8.60;;;2.47;;
20824;SDS011;10573;50.936;6.978;2023-06-14T06:49:51;8.45;;;2.65;;
20824;SDS011;10573;50.936;6.978;2023-06-14T06:52:16;6.72;;;2.60;;
20824;SDS011;10573;50.936;6.978;2023-06-14T06:54:42;7.18;;;2.72;;
20824;SDS011;10573;50.936;6.978;2023-06-14T06:57:07;5.32;;;2.60;;
20824;SDS011;10573;50.936;6.978;2023-06-14T06:59:33;4.65;;;2.30;;
20824;SDS011;10573;50.936;6.978;2023-06-14T07:01:59;6.35;;;2.53;;
20824;SDS011;10573;50.936;6.978;2023-06-14T07:04:24;2.83;;;2.50;;
20824;SDS011;10573;50.936;6.978;2023-06-14T07:06:50;8.40;;;2.42;;
20824;SDS011;10573;50.936;6.978;2023-06-14T07:09:15;3.85;;;2.25;;
20824;SDS011;10573;50.936;6.978;2023-06-14T07:11:42;9.68;;;2.33;;
20824;SDS011;10573;50.936;6.978;2023-06-14T07:14:08;5.32;;;2.25;;
20824;SDS011;10573;50.936;6.978;2023-06-14T07:16:34;8.85;;;2.38;;
20824;SDS011;10573;50.936;6.978;2023-06-14T07:18:59;3.80;;;2.15;;
20824;SDS011;10573;50.936;6.978;2023-06-14T07:21:26;2.95;;;1.92;;
20824;SDS011;10573;50.936;6.978;2023-06-14T07:23:54;6.25;;;2.63;;
20824;SDS011;10573;50.936;6.978;2023-06-14T07:26:20;3.13;;;2.20;;
20824;SDS011;10573;50.936;6.978;2023-06-14T07:28:47;7.43;;;2.30;;
20824;SDS011;10573;50.936;6.978;2023-06-14T07:31:13;5.35;;;2.83;;
20824;SDS011;10573;50.936;6.978;2023-06-14T07:33:40;6.55;;;2.30;;
20824;SDS011;10573;50.936;6.978;2023-06-14T07:36:06;8.38;;;2.10;;
20824;SDS011;10573;50.936;6.978;2023-06-14T07:38:32;2.55;;;1.98;;
20824;SDS011;10573;50.936;6.978;2023-06-14T07:40:57;6.55;;;2.20;;
20824;SDS011;10573;50.936;6.978;2023-06-14T07:43:23;5.10;;;2.08;;
20824;SDS011;10573;50.936;6.978;2023-06-14T07:45:48;9.20;;;1.90;;
20824;SDS011;10573;50.936;6.978;2023-06-14T07:48:13;8.77;;;1.60;;
20824;SDS011;10573;50.936;6.978;2023-06-14T07:50:39;2.50;;;2.00;;
20824;SDS011;10573;50.936;6.978;2023-06-14T07:53:04;3.10;;;1.48;;
20824;SDS011;10573;50.936;6.978;2023-06-14T07:55:30;3.33;;;1.92;;
20824;SDS011;10573;50.936;6.978;2023-06-14T07:57:57;1.88;;;1.20;;
20824;SDS011;10573;50.936;6.978;2023-06-14T08:00:23;2.55;;;1.50;;
20824;SDS011;10573;50.936;6.978;2023-06-14T08:02:49;2.78;;;1.52;;
20824;SDS011;10573;50.936;6.978;2023-06-14T08:05:15;5.20;;;1.40;;
20824;SDS011;10573;50.936;6.978;2023-06-14T08:07:41;1.60;;;1.40;;
20824;SDS011;10573;50.936;6.978;2023-06-14T08:10:07;4.68;;;1.23;;
20824;SDS011;10573;50.936;6.978;2023-06-14T08:12:33;2.08;;;1.10;;
20824;SDS011;10573;50.936;6.978;2023-06-14T08:14:59;3.80;;;0.98;;
20824;SDS011;10573;50.936;6.978;2023-06-14T08:17:25;10.02;;;1.50;;
20824;SDS011;10573;50.936;6.978;2023-06-14T08:19:50;7.40;;;1.48;;
20824;SDS011;10573;50.936;6.978;2023-06-14T08:22:16;3.10;;;1.15;;
20824;SDS011;10573;50.936;6.978;2023-06-14T08:24:43;5.55;;;1.55;;
20824;SDS011;10573;50.936;6.978;2023-06-14T08:27:09;3.97;;;1.30;;
20824;SDS011;10573;50.936;6.978;2023-06-14T08:29:35;1.85;;;1.55;;
20824;SDS011;10573;50.936;6.978;2023-06-14T08:32:00;8.75;;;1.92;;
20824;SDS011;10573;50.936;6.978;2023-06-14T08:34:26;6.53;;;1.35;;
20824;SDS011;10573;50.936;6.978;2023-06-14T08:36:52;2.70;;;1.00;;
20824;SDS011;10573;50.936;6.978;2023-06-14T08:39:17;2.90;;;1.20;;
20824;SDS011;10573;50.936;6.978;2023-06-14T08:41:45;5.68;;;1.73;;
20824;SDS011;10573;50.936;6.978;2023-06-14T08:44:13;4.40;;;0.90;;
20824;SDS011;10573;50.936;6.978;2023-06-14T08:46:40;4.53;;;1.27;;
20824;SDS011;10573;50.936;6.978;2023-06-14T08:49:07;2.75;;;1.27;;
20824;SDS011;10573;50.936;6.978;2023-06-14T08:51:36;4.78;;;1.48;;
20824;SDS011;10573;50.936;6.978;2023-06-14T08:54:02;3.13;;;1.42;;
20824;SDS011;10573;50.936;6.978;2023-06-14T08:56:29;5.30;;;1.98;;
20824;SDS011;10573;50.936;6.978;2023-06-14T08:58:56;2.17;;;1.17;;
20824;SDS011;10573;50.936;6.978;2023-06-14T09:01:25;1.83;;;1.45;;
20824;SDS011;10573;50.936;6.978;2023-06-14T09:03:51;1.88;;;1.20;;
20824;SDS011;10573;50.936;6.978;2023-06-14T09:06:20;3.70;;;1.40;;
20824;SDS011;10573;50.936;6.978;2023-06-14T09:08:48;1.30;;;1.00;;
20824;SDS011;10573;50.936;6.978;2023-06-14T09:11:15;2.20;;;1.25;;
20824;SDS011;10573;50.936;6.978;2023-06-14T09:13:43;2.25;;;1.45;;
20824;SDS011;10573;50.936;6.978;2023-06-14T09:16:10;2.17;;;1.48;;
20824;SDS011;10573;50.936;6.978;2023-06-14T09:18:36;1.95;;;1.55;;
20824;SDS011;10573;50.936;6.978;2023-06-14T09:21:03;2.50;;;1.20;;
20824;SDS011;10573;50.936;6.978;2023-06-14T09:23:39;1.10;;;1.00;;
20824;SDS011;10573;50.936;6.978;2023-06-14T09:26:09;1.95;;;0.93;;
20824;SDS011;10573;50.936;6.978;2023-06-14T09:28:36;2.58;;;1.60;;
20824;SDS011;10573;50.936;6.978;2023-06-14T09:31:06;2.30;;;1.25;;
20824;SDS011;10573;50.936;6.978;2023-06-14T09:33:33;2.90;;;1.23;;
20824;SDS011;10573;50.936;6.978;2023-06-14T09:35:59;4.07;;;1.23;;
20824;SDS011;10573;50.936;6.978;2023-06-14T09:38:24;3.75;;;1.30;;
20824;SDS011;10573;50.936;6.978;2023-06-14T09:40:50;3.53;;;1.40;;
20824;SDS011;10573;50.936;6.978;2023-06-14T09:43:16;3.67;;;1.75;;
20824;SDS011;10573;50.936;6.978;2023-06-14T09:45:43;2.05;;;1.40;;
20824;SDS011;10573;50.936;6.978;2023-06-14T09:48:11;1.30;;;1.00;;
20824;SDS011;10573;50.936;6.978;2023-06-14T09:50:37;3.53;;;1.15;;
20824;SDS011;10573;50.936;6.978;2023-06-14T09:53:07;4.68;;;1.55;;
20824;SDS011;10573;50.936;6.978;2023-06-14T09:55:36;2.60;;;1.17;;
20824;SDS011;10573;50.936;6.978;2023-06-14T09:58:04;2.85;;;1.77;;
20824;SDS011;10573;50.936;6.978;2023-06-14T10:00:31;2.75;;;2.08;;
20824;SDS011;10573;50.936;6.978;2023-06-14T10:03:00;1.20;;;1.10;;
20824;SDS011;10573;50.936;6.978;2023-06-14T10:05:31;1.40;;;1.00;;
20824;SDS011;10573;50.936;6.978;2023-06-14T10:08:05;1.55;;;0.95;;
20824;SDS011;10573;50.936;6.978;2023-06-14T10:10:34;1.45;;;1.23;;
20824;SDS011;10573;50.936;6.978;2023-06-14T10:12:59;1.40;;;1.10;;
20824;SDS011;10573;50.936;6.978;2023-06-14T10:23:51;1.38;;;1.10;;
20824;SDS011;10573;50.936;6.978;2023-06-14T10:26:18;2.40;;;1.30;;
20824;SDS011;10573;50.936;6.978;2023-06-14T10:29:06;4.60;;;1.20;;
20824;SDS011;10573;50.936;6.978;2023-06-14T10:31:40;3.78;;;1.13;;
20824;SDS011;10573;50.936;6.978;2023-06-14T10:34:10;2.17;;;1.25;;
20824;SDS011;10573;50.936;6.978;2023-06-14T10:36:37;4.18;;;1.10;;
20824;SDS011;10573;50.936;6.978;2023-06-14T10:39:15;7.97;;;2.08;;
20824;SDS011;10573;50.936;6.978;2023-06-14T10:41:50;4.35;;;1.73;;
20824;SDS011;10573;50.936;6.978;2023-06-14T10:46:46;1.58;;;1.10;;
20824;SDS011;10573;50.936;6.978;2023-06-14T10:49:12;1.15;;;1.05;;
20824;SDS011;10573;50.936;6.978;2023-06-14T10:51:44;2.85;;;1.10;;
20824;SDS011;10573;50.936;6.978;2023-06-14T10:54:20;3.20;;;1.60;;
20824;SDS011;10573;50.936;6.978;2023-06-14T10:56:46;2.13;;;0.93;;
20824;SDS011;10573;50.936;6.978;2023-06-14T10:59:13;3.72;;;1.00;;
20824;SDS011;10573;50.936;6.978;2023-06-14T11:04:20;2.65;;;1.45;;
20824;SDS011;10573;50.936;6.978;2023-06-14T11:06:49;1.42;;;0.90;;
20824;SDS011;10573;50.936;6.978;2023-06-14T11:11:45;2.10;;;1.00;;
20824;SDS011;10573;50.936;6.978;2023-06-14T11:14:11;3.13;;;1.20;;
20824;SDS011;10573;50.936;6.978;2023-06-14T11:16:37;1.92;;;1.45;;
20824;SDS011;10573;50.936;6.978;2023-06-14T11:19:02;1.45;;;1.23;;
20824;SDS011;10573;50.936;6.978;2023-06-14T11:21:33;3.08;;;1.20;;
20824;SDS011;10573;50.936;6.978;2023-06-14T11:23:59;2.10;;;1.23;;
20824;SDS011;10573;50.936;6.978;2023-06-14T11:26:31;1.88;;;1.15;;
20824;SDS011;10573;50.936;6.978;2023-06-14T11:28:59;3.72;;;1.30;;
20824;SDS011;10573;50.936;6.978;2023-06-14T11:31:29;4.82;;;1.55;;
20824;SDS011;10573;50.936;6.978;2023-06-14T11:33:55;1.80;;;1.45;;
20824;SDS011;10573;50.936;6.978;2023-06-14T11:36:22;2.38;;;1.45;;
20824;SDS011;10573;50.936;6.978;2023-06-14T11:38:48;3.20;;;1.30;;
20824;SDS011;10573;50.936;6.978;2023-06-14T11:41:13;7.40;;;1.48;;
20824;SDS011;10573;50.936;6.978;2023-06-14T11:43:39;1.52;;;1.25;;
20824;SDS011;10573;50.936;6.978;2023-06-14T11:46:06;4.63;;;1.25;;
20824;SDS011;10573;50.936;6.978;2023-06-14T11:48:40;2.25;;;1.73;;
20824;SDS011;10573;50.936;6.978;2023-06-14T11:51:08;1.83;;;0.98;;
20824;SDS011;10573;50.936;6.978;2023-06-14T11:53:34;3.75;;;1.23;;
20824;SDS011;10573;50.936;6.978;2023-06-14T11:56:00;6.53;;;1.40;;
20824;SDS011;10573;50.936;6.978;2023-06-14T11:58:26;10.18;;;1.25;;
20824;SDS011;10573;50.936;6.978;2023-06-14T12:00:53;3.55;;;0.90;;
20824;SDS011;10573;50.936;6.978;2023-06-14T12:03:22;1.45;;;1.13;;
20824;SDS011;10573;50.936;6.978;2023-06-14T12:05:48;4.28;;;1.17;;
20824;SDS011;10573;50.936;6.978;2023-06-14T12:08:14;1.33;;;0.90;;
20824;SDS011;10573;50.936;6.978;2023-06-14T12:10:42;7.40;;;1.10;;
20824;SDS011;10573;50.936;6.978;2023-06-14T12:13:08;1.15;;;1.05;;
20824;SDS011;10573;50.936;6.978;2023-06-14T12:15:34;3.85;;;1.33;;
20824;SDS011;10573;50.936;6.978;2023-06-14T12:18:00;2.35;;;1.10;;
20824;SDS011;10573;50.936;6.978;2023-06-14T12:20:29;2.67;;;1.25;;
20824;SDS011;10573;50.936;6.978;2023-06-14T12:22:56;3.70;;;0.90;;
20824;SDS011;10573;50.936;6.978;2023-06-14T12:27:52;1.70;;;1.23;;
20824;SDS011;10573;50.936;6.978;2023-06-14T12:30:21;1.20;;;1.10;;
20824;SDS011;10573;50.936;6.978;2023-06-14T12:32:47;0.95;;;0.77;;
20824;SDS011;10573;50.936;6.978;2023-06-14T12:35:13;2.78;;;0.93;;
20824;SDS011;10573;50.936;6.978;2023-06-14T12:37:38;1.27;;;1.02;;
20824;SDS011;10573;50.936;6.978;2023-06-14T12:40:04;0.98;;;0.75;;
20824;SDS011;10573;50.936;6.978;2023-06-14T12:42:31;2.53;;;1.10;;
20824;SDS011;10573;50.936;6.978;2023-06-14T12:44:58;5.93;;;1.00;;
20824;SDS011;10573;50.936;6.978;2023-06-14T12:47:24;4.43;;;0.82;;
20824;SDS011;10573;50.936;6.978;2023-06-14T12:49:49;3.08;;;1.00;;
20824;SDS011;10573;50.936;6.978;2023-06-14T12:52:15;0.90;;;0.70;;
20824;SDS011;10573;50.936;6.978;2023-06-14T12:54:40;0.80;;;0.80;;
20824;SDS011;10573;50.936;6.978;2023-06-14T12:57:06;1.73;;;0.85;;
20824;SDS011;10573;50.936;6.978;2023-06-14T12:59:32;1.08;;;0.90;;
20824;SDS011;10573;50.936;6.978;2023-06-14T13:02:19;0.85;;;0.82;;
20824;SDS011;10573;50.936;6.978;2023-06-14T13:04:47;1.52;;;0.80;;
20824;SDS011;10573;50.936;6.978;2023-06-14T13:07:13;2.15;;;0.90;;
20824;SDS011;10573;50.936;6.978;2023-06-14T13:09:40;2.78;;;1.02;;
20824;SDS011;10573;50.936;6.978;2023-06-14T13:12:05;1.65;;;0.90;;
20824;SDS011;10573;50.936;6.978;2023-06-14T13:14:31;2.20;;;1.20;;
20824;SDS011;10573;50.936;6.978;2023-06-14T13:16:57;8.57;;;1.17;;
20824;SDS011;10573;50.936;6.978;2023-06-14T13:19:23;4.70;;;0.90;;
20824;SDS011;10573;50.936;6.978;2023-06-14T13:21:48;1.33;;;0.98;;
20824;SDS011;10573;50.936;6.978;2023-06-14T13:24:14;3.40;;;1.02;;
20824;SDS011;10573;50.936;6.978;2023-06-14T13:26:39;2.00;;;0.93;;
20824;SDS011;10573;50.936;6.978;2023-06-14T13:29:05;2.67;;;1.00;;
20824;SDS011;10573;50.936;6.978;2023-06-14T13:31:30;2.27;;;1.13;;
20824;SDS011;10573;50.936;6.978;2023-06-14T13:33:57;1.25;;;0.98;;
20824;SDS011;10573;50.936;6.978;2023-06-14T13:36:22;0.93;;;0.77;;
20824;SDS011;10573;50.936;6.978;2023-06-14T13:38:48;1.02;;;0.93;;
20824;SDS011;10573;50.936;6.978;2023-06-14T13:41:13;1.00;;;0.98;;
20824;SDS011;10573;50.936;6.978;2023-06-14T13:43:38;1.25;;;1.00;;
20824;SDS011;10573;50.936;6.978;2023-06-14T13:46:04;8.93;;;1.00;;
20824;SDS011;10573;50.936;6.978;2023-06-14T13:48:29;2.85;;;0.90;;
20824;SDS011;10573;50.936;6.978;2023-06-14T13:50:55;3.20;;;1.25;;
20824;SDS011;10573;50.936;6.978;2023-06-14T13:53:21;2.30;;;1.15;;
20824;SDS011;10573;50.936;6.978;2023-06-14T13:55:46;5.75;;;1.27;;
20824;SDS011;10573;50.936;6.978;2023-06-14T13:58:12;3.83;;;1.30;;
20824;SDS011;10573;50.936;6.978;2023-06-14T14:00:39;3.28;;;1.35;;
20824;SDS011;10573;50.936;6.978;2023-06-14T14:03:05;2.65;;;1.05;;
20824;SDS011;10573;50.936;6.978;2023-06-14T14:05:31;1.38;;;0.98;;
20824;SDS011;10573;50.936;6.978;2023-06-14T14:07:57;3.33;;;1.00;;
20824;SDS011;10573;50.936;6.978;2023-06-14T14:10:23;1.90;;;1.10;;
20824;SDS011;10573;50.936;6.978;2023-06-14T14:12:50;3.80;;;1.10;;
20824;SDS011;10573;50.936;6.978;2023-06-14T14:15:16;1.45;;;0.90;;
20824;SDS011;10573;50.936;6.978;2023-06-14T14:17:42;1.50;;;1.08;;
20824;SDS011;10573;50.936;6.978;2023-06-14T14:20:07;4.38;;;1.85;;
20824;SDS011;10573;50.936;6.978;2023-06-14T14:22:33;3.72;;;1.23;;
20824;SDS011;10573;50.936;6.978;2023-06-14T14:24:58;3.33;;;1.02;;
20824;SDS011;10573;50.936;6.978;2023-06-14T14:27:24;1.88;;;1.25;;
20824;SDS011;10573;50.936;6.978;2023-06-14T14:29:49;7.93;;;1.05;;
20824;SDS011;10573;50.936;6.978;2023-06-14T14:32:15;2.47;;;1.10;;
20824;SDS011;10573;50.936;6.978;2023-06-14T14:34:40;1.95;;;1.35;;
20824;SDS011;10573;50.936;6.978;2023-06-14T14:37:06;2.22;;;1.20;;
20824;SDS011;10573;50.936;6.978;2023-06-14T14:39:31;4.38;;;1.10;;
20824;SDS011;10573;50.936;6.978;2023-06-14T14:41:57;2.50;;;1.15;;
20824;SDS011;10573;50.936;6.978;2023-06-14T14:44:22;1.70;;;1.20;;
20824;SDS011;10573;50.936;6.978;2023-06-14T14:46:48;2.00;;;1.23;;
20824;SDS011;10573;50.936;6.978;2023-06-14T14:49:13;53.08;;;7.43;;
20824;SDS011;10573;50.936;6.978;2023-06-14T14:51:38;3.75;;;1.30;;
20824;SDS011;10573;50.936;6.978;2023-06-14T14:54:05;72.72;;;10.88;;
20824;SDS011;10573;50.936;6.978;2023-06-14T14:56:31;4.65;;;1.48;;
20824;SDS011;10573;50.936;6.978;2023-06-14T14:58:56;32.53;;;3.97;;
20824;SDS011;10573;50.936;6.978;2023-06-14T15:01:22;56.60;;;8.05;;
20824;SDS011;10573;50.936;6.978;2023-06-14T15:03:47;61.47;;;11.20;;